Time;durP1;ratioP1;P1;durP2;ratioP2;P2;SDS_P1;SDS_P2;PMS_P1;PMS_P2;Temp;Humidity;BMP_temperature;BMP_pressure;BME280_temperature;BME280_humidity;BME280_pressure;Samples;Min_cycle;Max_cycle;Signal;HPM_P1;HPM_P2
2022/03/20 00:00:55;;;;;;;;;5.25;3.75;;;;;12.28;31.58;102254.09;5002610;28;45237;-75
2022/03/20 00:03:23;;;;;;;;;4.50;4.50;;;;;12.28;31.84;102259.44;4985740;28;45435;-75
2022/03/20 00:05:49;;;;;;;;;5.00;4.00;;;;;12.45;31.88;102282.41;4981499;28;45939;-75
2022/03/20 00:08:15;;;;;;;;;4.00;4.00;;;;;12.24;31.56;102241.66;4998687;28;45550;-75
2022/03/20 00:10:50;;;;;;;;;5.00;4.00;;;;;12.22;31.46;102246.16;4992435;28;45845;-75
2022/03/20 00:13:18;;;;;;;;;4.00;3.50;;;;;12.13;31.81;102243.59;5002610;28;45411;-75
2022/03/20 00:15:45;;;;;;;;;1.25;0.25;;;;;12.42;31.95;102289.56;4997966;28;45468;-75
2022/03/20 00:18:13;;;;;;;;;4.00;3.00;;;;;12.22;32.04;102252.38;4997696;28;46292;-75
2022/03/20 00:20:41;;;;;;;;;3.00;3.00;;;;;12.11;31.56;102243.66;5002388;28;45327;-75
2022/03/20 00:23:09;;;;;;;;;3.00;3.00;;;;;12.34;31.53;102286.09;5000855;28;45452;-75
2022/03/20 00:25:35;;;;;;;;;4.75;3.50;;;;;11.93;31.72;102238.53;4989650;28;45174;-74
2022/03/20 00:28:03;;;;;;;;;2.00;2.00;;;;;11.85;31.55;102227.91;4989288;28;45287;-75
2022/03/20 00:30:28;;;;;;;;;4.00;4.00;;;;;11.91;31.67;102251.97;5002378;28;45669;-75
2022/03/20 00:32:54;;;;;;;;;3.00;2.25;;;;;11.80;31.53;102243.16;5001912;28;45284;-75
2022/03/20 00:35:19;;;;;;;;;4.25;2.00;;;;;12.08;32.10;102286.50;4983646;28;45433;-75
2022/03/20 00:37:45;;;;;;;;;2.25;2.25;;;;;11.88;32.04;102249.28;4992995;28;47971;-75
2022/03/20 00:40:10;;;;;;;;;3.50;2.75;;;;;12.01;32.05;102263.38;4998289;28;45487;-75
2022/03/20 00:42:35;;;;;;;;;3.50;3.00;;;;;11.78;31.67;102228.91;4993980;28;45516;-75
2022/03/20 00:45:01;;;;;;;;;4.00;3.00;;;;;12.03;31.88;102280.34;4999133;28;45512;-75
2022/03/20 00:47:26;;;;;;;;;3.50;3.00;;;;;11.75;31.90;102231.63;4984784;28;46366;-75
2022/03/20 00:49:52;;;;;;;;;3.00;3.00;;;;;11.89;31.82;102259.06;4982663;28;45397;-75
2022/03/20 00:52:17;;;;;;;;;2.75;2.00;;;;;11.61;31.99;102202.38;4996240;28;45687;-75
2022/03/20 00:54:43;;;;;;;;;3.00;1.50;;;;;11.78;32.12;102232.47;4993185;28;45490;-75
2022/03/20 00:57:08;;;;;;;;;4.00;4.00;;;;;11.65;31.70;102226.38;4996604;28;45911;-75
2022/03/20 00:59:33;;;;;;;;;5.00;2.00;;;;;11.85;31.90;102274.28;4992613;28;45393;-75
2022/03/20 01:01:59;;;;;;;;;3.00;3.00;;;;;11.45;31.84;102212.41;4982450;28;45469;-75
2022/03/20 01:04:25;;;;;;;;;2.75;2.75;;;;;11.41;32.45;102216.91;4989412;28;45316;-75
2022/03/20 01:06:50;;;;;;;;;5.25;4.25;;;;;11.34;31.86;102204.50;4997833;28;47107;-75
2022/03/20 01:09:16;;;;;;;;;3.50;1.75;;;;;11.41;32.19;102218.66;4982326;28;45280;-75
2022/03/20 01:11:41;;;;;;;;;3.75;2.00;;;;;11.28;32.26;102204.59;4993873;28;45575;-75
2022/03/20 01:14:08;;;;;;;;;2.00;2.00;;;;;11.62;32.44;102258.53;4982201;28;45473;-75
2022/03/20 01:16:33;;;;;;;;;2.50;2.50;;;;;11.45;32.17;102220.41;4990761;28;46038;-75
2022/03/20 01:18:59;;;;;;;;;2.25;2.25;;;;;11.36;32.26;102193.78;4995071;28;45811;-75
2022/03/20 01:21:24;;;;;;;;;4.50;4.00;;;;;11.48;31.98;102212.38;4991784;28;45284;-75
2022/03/20 01:23:49;;;;;;;;;2.50;1.75;;;;;11.52;32.58;102215.88;4996815;28;45678;-75
2022/03/20 01:26:15;;;;;;;;;4.00;3.00;;;;;11.56;32.07;102220.28;4981830;28;45480;-75
2022/03/20 01:28:40;;;;;;;;;5.00;3.00;;;;;11.43;32.72;102192.81;4998061;28;45405;-75
2022/03/20 01:31:08;;;;;;;;;2.50;2.50;;;;;11.39;31.80;102186.59;4991729;28;45350;-75
2022/03/20 01:33:34;;;;;;;;;3.25;2.25;;;;;11.27;32.42;102171.59;4998512;28;45166;-74
2022/03/20 01:36:00;;;;;;;;;1.75;1.75;;;;;11.30;32.30;102200.97;4999653;28;47074;-75
2022/03/20 01:38:26;;;;;;;;;3.00;3.00;;;;;11.12;32.29;102194.06;4997262;28;45234;-74
2022/03/20 01:40:51;;;;;;;;;4.75;3.00;;;;;11.08;32.09;102199.47;4981967;28;45437;-75
2022/03/20 01:43:17;;;;;;;;;2.50;2.50;;;;;10.93;32.76;102180.03;4989913;28;45587;-74
2022/03/20 01:45:43;;;;;;;;;4.00;3.00;;;;;11.05;32.63;102196.81;4982609;28;46434;-75
2022/03/20 01:48:09;;;;;;;;;3.00;3.00;;;;;10.90;32.73;102176.50;4992696;28;45398;-75
2022/03/20 01:50:35;;;;;;;;;2.00;2.00;;;;;10.96;32.85;102196.91;4994739;28;45447;-75
2022/03/20 01:53:01;;;;;;;;;2.75;2.75;;;;;10.93;33.14;102195.19;4987703;28;45608;-75
2022/03/20 01:55:28;;;;;;;;;2.00;2.00;;;;;11.03;32.89;102226.25;4981311;28;46200;-75
2022/03/20 01:57:54;;;;;;;;;2.50;2.00;;;;;10.68;33.21;102175.84;4994644;28;45521;-74
2022/03/20 02:00:21;;;;;;;;;3.00;3.00;;;;;10.83;33.23;102186.38;4986940;28;45313;-75
2022/03/20 02:02:47;;;;;;;;;3.00;2.00;;;;;10.86;33.35;102186.34;4986460;28;45508;-75
2022/03/20 02:05:13;;;;;;;;;3.50;3.00;;;;;10.82;33.49;102173.03;4994081;28;45481;-75
2022/03/20 02:07:40;;;;;;;;;3.50;3.00;;;;;10.69;33.21;102151.81;4993161;28;45288;-75
2022/03/20 02:10:07;;;;;;;;;1.00;1.00;;;;;10.80;33.00;102196.22;4998772;28;45407;-75
2022/03/20 02:12:35;;;;;;;;;3.00;1.00;;;;;10.67;33.81;102169.59;4999868;28;45519;-75
2022/03/20 02:15:01;;;;;;;;;3.25;2.50;;;;;10.85;33.53;102197.91;4992521;28;46486;-75
2022/03/20 02:17:30;;;;;;;;;2.50;2.00;;;;;10.81;33.79;102173.91;4995725;28;45754;-74
2022/03/20 02:20:04;;;;;;;;;2.00;2.00;;;;;10.88;33.76;102179.19;5000784;28;45433;-75
2022/03/20 02:22:32;;;;;;;;;1.50;1.50;;;;;10.69;33.61;102146.47;4988496;28;45440;-75
2022/03/20 02:24:58;;;;;;;;;2.50;2.50;;;;;10.73;33.67;102153.53;4998964;28;45590;-75
2022/03/20 02:27:25;;;;;;;;;2.25;2.25;;;;;10.60;34.07;102143.00;4989268;28;45415;-75
2022/03/20 02:30:02;;;;;;;;;5.00;2.50;;;;;10.59;34.14;102150.09;4999129;28;45255;-74
2022/03/20 02:32:30;;;;;;;;;2.00;2.00;;;;;10.62;33.71;102157.22;4999396;28;45592;-75
2022/03/20 02:34:58;;;;;;;;;1.75;1.75;;;;;10.55;33.59;102137.69;4982458;28;47051;-74
2022/03/20 02:37:24;;;;;;;;;2.50;2.00;;;;;10.73;34.13;102180.22;4992157;28;45323;-74
2022/03/20 02:39:54;;;;;;;;;2.50;2.50;;;;;10.47;34.62;102139.56;4983900;28;45334;-75
2022/03/20 02:42:21;;;;;;;;;1.00;1.00;;;;;10.37;34.13;102120.97;4989124;28;45513;-74
2022/03/20 02:45:00;;;;;;;;;2.00;2.00;;;;;10.42;34.64;102134.25;4996966;28;45399;-75
2022/03/20 02:47:35;;;;;;;;;3.00;3.00;;;;;10.44;34.70;102131.56;4994393;28;45372;-75
2022/03/20 02:50:11;;;;;;;;;4.25;3.00;;;;;10.74;34.95;102183.78;4994456;28;45505;-75
2022/03/20 02:52:39;;;;;;;;;3.25;2.50;;;;;10.74;34.34;102183.78;4998647;28;45258;-75
2022/03/20 02:55:05;;;;;;;;;3.00;3.00;;;;;10.49;34.65;102135.06;4997867;28;45496;-75
2022/03/20 02:57:31;;;;;;;;;4.00;4.00;;;;;10.41;34.49;102127.16;4980621;28;45351;-74
2022/03/20 03:00:00;;;;;;;;;2.25;2.25;;;;;10.49;34.91;102151.09;4996160;28;45335;-74
2022/03/20 03:02:30;;;;;;;;;3.50;3.50;;;;;10.40;34.95;102143.19;4995610;28;45594;-74
2022/03/20 03:04:59;;;;;;;;;3.00;3.00;;;;;10.10;35.33;102097.16;4980305;28;46400;-74
2022/03/20 03:07:28;;;;;;;;;3.50;3.50;;;;;10.15;35.33;102112.22;4989740;28;45496;-74
2022/03/20 03:12:37;;;;;;;;;4.25;4.25;;;;;10.15;35.58;102114.88;4993201;28;45399;-74
2022/03/20 03:15:19;;;;;;;;;3.00;3.00;;;;;10.17;35.46;102133.53;4991218;28;45568;-74
2022/03/20 03:17:44;;;;;;;;;3.50;2.25;;;;;10.14;35.49;102117.56;4993186;28;45174;-74
2022/03/20 03:20:10;;;;;;;;;3.50;2.00;;;;;9.97;35.81;102089.28;4980405;28;45221;-74
2022/03/20 03:22:35;;;;;;;;;2.50;2.50;;;;;10.10;35.50;102103.38;5004740;28;45216;-74
2022/03/20 03:25:00;;;;;;;;;4.00;4.00;;;;;9.97;35.42;102080.34;5006307;28;45324;-75
2022/03/20 03:27:26;;;;;;;;;3.50;2.75;;;;;10.16;35.89;102127.34;5006522;28;45386;-75
2022/03/20 03:29:51;;;;;;;;;2.50;2.50;;;;;10.05;35.90;102105.19;5006500;28;45425;-75
2022/03/20 03:32:17;;;;;;;;;5.00;4.25;;;;;10.30;36.12;102148.56;5006441;28;45544;-74
2022/03/20 03:37:27;;;;;;;;;5.25;5.25;;;;;10.05;36.42;102109.66;5006037;28;45229;-74
2022/03/20 03:39:52;;;;;;;;;6.75;6.50;;;;;9.91;36.41;102107.97;5004864;28;45352;-74
2022/03/20 03:42:17;;;;;;;;;7.25;5.75;;;;;9.81;36.69;102098.28;4998589;28;45439;-74
2022/03/20 03:44:43;;;;;;;;;4.75;2.00;;;;;9.78;36.63;102098.31;4991432;28;45311;-74
2022/03/20 03:47:08;;;;;;;;;10.00;9.00;;;;;9.80;36.49;102108.03;4986605;28;45407;-74
2022/03/20 03:49:34;;;;;;;;;7.50;6.50;;;;;9.75;36.73;102106.31;4986564;28;45364;-74
2022/03/20 03:52:03;;;;;;;;;6.50;5.00;;;;;9.66;37.25;102098.41;5000588;28;45363;-74
2022/03/20 03:54:29;;;;;;;;;5.00;5.00;;;;;9.56;36.90;102090.44;4995946;28;47416;-75
2022/03/20 03:56:54;;;;;;;;;5.75;5.75;;;;;9.76;37.28;102124.97;4986326;28;45597;-74
2022/03/20 03:59:20;;;;;;;;;6.75;6.75;;;;;9.70;37.42;102110.81;4995474;28;45353;-74
2022/03/20 04:01:45;;;;;;;;;6.75;5.00;;;;;9.61;37.13;102106.44;4987659;28;45430;-74
2022/03/20 04:04:11;;;;;;;;;4.50;4.00;;;;;9.39;37.51;102089.69;4992029;28;47178;-74
2022/03/20 04:06:36;;;;;;;;;6.25;4.75;;;;;9.38;37.27;102099.44;5002066;28;45607;-74
2022/03/20 04:09:03;;;;;;;;;8.75;5.00;;;;;9.43;38.04;102105.63;5004865;28;45279;-74
2022/03/20 04:11:28;;;;;;;;;6.75;4.75;;;;;9.53;37.84;102124.25;5000294;28;45304;-74
2022/03/20 04:13:53;;;;;;;;;5.75;5.75;;;;;9.53;37.74;102126.91;4986317;28;46593;-74
2022/03/20 04:16:19;;;;;;;;;5.25;5.00;;;;;9.52;38.05;102122.47;5001880;28;45640;-73
2022/03/20 04:18:44;;;;;;;;;3.50;3.50;;;;;9.44;38.00;102111.88;4994851;28;45324;-74
2022/03/20 04:21:12;;;;;;;;;5.25;4.50;;;;;9.71;38.10;102153.47;5003302;28;45362;-74
2022/03/20 04:23:48;;;;;;;;;8.00;4.00;;;;;9.45;38.29;102106.53;4994295;28;46120;-74
2022/03/20 04:26:18;;;;;;;;;6.50;6.50;;;;;9.50;38.37;102103.81;5005418;28;45309;-74
2022/03/20 04:28:44;;;;;;;;;7.25;4.50;;;;;9.57;38.21;102128.66;5005718;28;45212;-73
2022/03/20 04:31:15;;;;;;;;;8.25;5.25;;;;;9.72;38.24;102165.00;4998885;28;45490;-74
2022/03/20 04:33:44;;;;;;;;;6.50;5.75;;;;;9.50;38.40;102119.81;4997139;28;45514;-74
2022/03/20 04:36:10;;;;;;;;;12.25;10.00;;;;;9.68;38.45;102155.25;5000494;28;46264;-74
2022/03/20 04:38:36;;;;;;;;;9.00;8.00;;;;;9.36;38.79;102101.22;4998971;28;45695;-73
2022/03/20 04:41:02;;;;;;;;;11.25;7.50;;;;;9.50;38.70;102122.47;5001145;28;45644;-74
2022/03/20 04:43:27;;;;;;;;;8.00;8.00;;;;;9.28;38.62;102087.94;4992737;28;45492;-74
2022/03/20 04:45:53;;;;;;;;;10.00;8.25;;;;;9.22;39.14;102068.44;4991756;28;45403;-74
2022/03/20 04:59:14;;;;;;;;;3.75;2.00;;;;;9.25;39.21;102087.97;4996777;28;45367;-74
2022/03/20 05:01:40;;;;;;;;;4.00;4.00;;;;;9.19;39.21;102077.34;5000693;28;45430;-74
2022/03/20 05:04:05;;;;;;;;;9.50;9.50;;;;;9.30;39.13;102087.94;4988406;28;45488;-74
2022/03/20 05:06:31;;;;;;;;;10.25;8.00;;;;;9.24;39.57;102088.88;4994438;28;45410;-74
2022/03/20 05:13:19;;;;;;;;;8.00;7.00;;;;;9.27;39.50;102090.59;4987253;28;45304;-74
2022/03/20 05:14:25;;;;;;;;;16.25;10.00;;;;;9.32;39.25;102104.81;4994030;28;45533;-73
2022/03/20 05:16:52;;;;;;;;;7.50;6.00;;;;;9.15;39.73;102088.91;4995968;28;45300;-74
2022/03/20 05:19:19;;;;;;;;;12.25;8.00;;;;;9.17;39.88;102088.88;4994666;28;45406;-74
2022/03/20 05:21:45;;;;;;;;;11.75;8.00;;;;;9.19;39.95;102090.66;4994125;28;45619;-74
2022/03/20 05:24:13;;;;;;;;;8.25;5.50;;;;;9.32;39.73;102093.25;4993197;28;46985;-74
2022/03/20 05:26:41;;;;;;;;;9.50;9.25;;;;;9.19;40.21;102085.34;4995390;28;45319;-74
2022/03/20 05:29:06;;;;;;;;;7.50;3.75;;;;;9.36;39.62;102117.22;4995207;28;45430;-74
2022/03/20 05:31:32;;;;;;;;;8.00;8.00;;;;;9.25;40.07;102103.06;4993808;28;45323;-74
2022/03/20 05:33:59;;;;;;;;;8.75;7.00;;;;;9.07;40.24;102085.38;4981808;28;45688;-74
2022/03/20 05:36:29;;;;;;;;;3.00;3.00;;;;;9.04;40.03;102082.75;4999017;28;45882;-74
2022/03/20 05:38:59;;;;;;;;;6.00;6.00;;;;;8.96;40.04;102085.44;4989057;28;45294;-74
2022/03/20 05:44:11;;;;;;;;;8.00;7.00;;;;;8.74;40.39;102084.66;4996123;28;45391;-74
2022/03/20 05:46:37;;;;;;;;;2.25;2.00;;;;;8.78;40.57;102089.06;4993324;28;45257;-73
2022/03/20 05:49:03;;;;;;;;;6.50;6.00;;;;;8.65;41.19;102072.25;4994622;28;45269;-74
2022/03/20 05:51:30;;;;;;;;;10.25;7.75;;;;;8.63;41.29;102074.00;5000480;28;45451;-74
2022/03/20 05:53:56;;;;;;;;;8.00;6.50;;;;;8.57;40.90;102055.41;4986573;28;47976;-74
2022/03/20 05:59:06;;;;;;;;;7.75;6.75;;;;;8.86;40.86;102107.69;4997221;28;45462;-74
2022/03/20 06:01:31;;;;;;;;;8.25;7.25;;;;;8.94;41.11;102120.94;4992047;28;45418;-74
2022/03/20 06:03:56;;;;;;;;;9.75;7.00;;;;;8.82;41.06;102104.16;4981276;28;45356;-73
2022/03/20 06:06:22;;;;;;;;;9.25;8.00;;;;;8.56;41.16;102058.97;4986727;28;45406;-74
2022/03/20 06:08:49;;;;;;;;;15.25;10.00;;;;;8.59;41.07;102066.94;4999837;28;45371;-74
2022/03/20 06:11:15;;;;;;;;;14.00;7.75;;;;;8.47;41.53;102069.63;4986976;28;45434;-74
2022/03/20 06:13:40;;;;;;;;;8.25;7.00;;;;;8.56;41.58;102084.69;5001074;28;45373;-74
2022/03/20 06:16:08;;;;;;;;;7.75;7.50;;;;;8.35;41.63;102066.09;4987391;28;45281;-74
2022/03/20 06:18:33;;;;;;;;;8.00;8.00;;;;;8.49;41.65;102086.50;4981411;28;45464;-74
2022/03/20 06:20:59;;;;;;;;;8.00;8.00;;;;;8.55;41.76;102096.22;4998048;28;45518;-74
2022/03/20 06:23:24;;;;;;;;;13.50;10.00;;;;;8.55;42.02;102096.22;4989806;28;45354;-74
2022/03/20 06:25:53;;;;;;;;;9.00;8.00;;;;;8.48;41.32;102104.22;4985356;28;45419;-74
2022/03/20 06:28:19;;;;;;;;;10.00;9.00;;;;;8.52;41.91;102110.44;5000813;28;45512;-74
2022/03/20 06:30:45;;;;;;;;;8.00;8.00;;;;;8.31;41.99;102087.38;4981106;28;45335;-74
2022/03/20 06:33:10;;;;;;;;;10.75;8.50;;;;;8.56;41.91;102129.94;4992711;28;45482;-74
2022/03/20 06:35:35;;;;;;;;;8.75;7.75;;;;;8.35;42.32;102094.44;4995020;28;45279;-74
2022/03/20 06:38:01;;;;;;;;;10.25;9.00;;;;;8.43;42.19;102119.31;4991053;28;45302;-74
2022/03/20 06:40:26;;;;;;;;;17.75;11.00;;;;;8.57;42.06;102132.59;4989227;28;45571;-74
2022/03/20 06:42:52;;;;;;;;;10.25;9.25;;;;;8.35;42.29;102123.72;4985802;28;45933;-74
2022/03/20 06:45:20;;;;;;;;;13.00;8.50;;;;;8.10;42.49;102088.25;4987713;28;45524;-73
2022/03/20 06:47:47;;;;;;;;;12.75;12.00;;;;;8.19;42.75;102114.00;4983005;28;45386;-74
2022/03/20 06:50:13;;;;;;;;;13.25;10.50;;;;;8.19;42.96;102121.97;4988494;28;45384;-74
2022/03/20 06:52:39;;;;;;;;;15.00;13.50;;;;;8.08;42.76;102114.84;4998347;28;46388;-74
2022/03/20 06:55:06;;;;;;;;;13.50;11.50;;;;;8.16;42.71;102121.06;4993021;28;45328;-74
2022/03/20 06:57:32;;;;;;;;;15.50;14.00;;;;;8.42;42.69;102162.75;4992654;28;45451;-74
2022/03/20 07:00:02;;;;;;;;;11.75;9.75;;;;;8.05;42.94;102100.69;4992513;28;45692;-74
2022/03/20 07:02:28;;;;;;;;;17.75;15.25;;;;;8.20;43.10;102129.91;4981194;28;45352;-74
2022/03/20 07:04:53;;;;;;;;;16.25;14.75;;;;;8.16;42.75;102115.75;4980348;28;45445;-74
2022/03/20 07:07:20;;;;;;;;;15.50;13.75;;;;;8.49;43.17;102166.31;4989556;28;45438;-74
2022/03/20 07:09:45;;;;;;;;;14.50;13.75;;;;;8.22;43.12;102116.63;4979224;28;45481;-74
2022/03/20 07:12:12;;;;;;;;;8.75;8.00;;;;;8.36;43.14;102133.47;5007217;28;46889;-74
2022/03/20 07:14:38;;;;;;;;;13.00;10.50;;;;;8.43;43.21;102156.56;4990012;28;45228;-74
2022/03/20 07:17:09;;;;;;;;;17.00;14.75;;;;;8.68;43.14;102188.47;4990732;28;45555;-74
2022/03/20 07:19:39;;;;;;;;;14.25;13.00;;;;;8.38;43.22;102138.81;4993402;28;45463;-74
2022/03/20 07:22:05;;;;;;;;;16.75;14.00;;;;;8.37;43.21;102137.94;4991764;28;45524;-74
2022/03/20 07:24:36;;;;;;;;;18.00;15.00;;;;;8.31;42.86;102127.28;4994306;28;45300;-74
2022/03/20 07:29:46;;;;;;;;;19.75;14.25;;;;;8.63;43.31;102153.88;4988932;28;45389;-74
2022/03/20 07:32:11;;;;;;;;;16.25;16.25;;;;;8.52;43.18;102124.63;4996682;28;45744;-75
2022/03/20 07:34:39;;;;;;;;;16.75;15.75;;;;;8.87;43.01;102170.69;4989057;28;45217;-76
2022/03/20 07:37:06;;;;;;;;;20.00;20.00;;;;;8.86;42.83;102174.25;4991992;28;45501;-78
2022/03/20 07:39:33;;;;;;;;;19.00;15.25;;;;;8.80;43.12;102177.78;4987216;28;45363;-75
2022/03/20 07:41:58;;;;;;;;;20.75;17.25;;;;;8.80;43.15;102182.25;4993357;28;45327;-75
2022/03/20 07:44:25;;;;;;;;;20.25;16.50;;;;;8.77;43.35;102169.84;4983035;28;45763;-76
2022/03/20 07:46:52;;;;;;;;;18.00;15.75;;;;;8.83;43.15;102191.09;4987244;28;45366;-76
2022/03/20 07:49:19;;;;;;;;;19.50;18.50;;;;;8.81;43.41;102190.22;4986187;28;46579;-76
2022/03/20 07:51:46;;;;;;;;;17.25;16.50;;;;;8.76;43.28;102180.50;4986739;28;45312;-76
2022/03/20 07:54:12;;;;;;;;;17.25;17.25;;;;;8.86;43.29;102184.91;4998595;28;45366;-76
2022/03/20 07:56:37;;;;;;;;;26.75;20.50;;;;;8.85;42.80;102177.78;4991425;28;45600;-77
2022/03/20 07:59:07;;;;;;;;;20.50;19.00;;;;;8.87;43.28;102187.56;4998090;28;45370;-77
2022/03/20 08:01:37;;;;;;;;;22.00;18.75;;;;;8.90;43.37;102190.22;4990112;28;47400;-76
2022/03/20 08:04:03;;;;;;;;;19.25;18.75;;;;;8.98;43.54;102184.84;4986057;28;45328;-81
2022/03/20 08:06:29;;;;;;;;;19.00;17.75;;;;;8.99;43.29;102180.44;4996810;28;45288;-78
2022/03/20 08:08:59;;;;;;;;;23.25;21.25;;;;;8.96;42.94;102165.34;4988205;28;45561;-78
2022/03/20 08:11:28;;;;;;;;;22.75;20.00;;;;;9.06;43.37;102180.41;5000734;28;48038;-79
2022/03/20 08:13:54;;;;;;;;;24.25;22.50;;;;;9.09;43.28;102172.41;4989409;28;45388;-77
2022/03/20 08:16:22;;;;;;;;;27.75;25.50;;;;;9.15;43.25;102176.81;5000732;28;45331;-76
2022/03/20 08:18:48;;;;;;;;;27.25;23.50;;;;;9.14;43.31;102180.38;4989803;28;45527;-76
2022/03/20 08:21:14;;;;;;;;;27.25;23.25;;;;;9.16;43.13;102181.25;4993973;28;45952;-76
2022/03/20 08:23:41;;;;;;;;;22.00;18.00;;;;;9.16;43.15;102167.94;4993850;28;45824;-77
2022/03/20 08:26:08;;;;;;;;;25.50;21.25;;;;;9.26;43.16;102176.78;4996670;28;45450;-76
2022/03/20 08:28:38;;;;;;;;;25.75;23.25;;;;;9.24;43.24;102183.91;4993168;28;45323;-76
2022/03/20 08:31:06;;;;;;;;;24.00;23.50;;;;;9.22;43.30;102177.69;4993765;28;47330;-80
2022/03/20 08:33:34;;;;;;;;;28.50;25.25;;;;;9.28;43.21;102181.19;4991061;28;45793;-79
2022/03/20 08:36:01;;;;;;;;;28.50;21.75;;;;;9.37;43.36;102182.06;4987446;28;45347;-78
2022/03/20 08:38:26;;;;;;;;;31.00;27.75;;;;;9.36;43.34;102172.31;4982533;28;45210;-79
2022/03/20 08:40:52;;;;;;;;;30.50;25.00;;;;;9.48;43.18;102185.56;4997483;28;47184;-79
2022/03/20 08:43:17;;;;;;;;;28.25;26.00;;;;;9.47;43.36;102167.78;5001620;28;45238;-78
2022/03/20 08:45:44;;;;;;;;;26.00;24.00;;;;;9.60;42.99;102184.63;4997987;28;45236;-78
2022/03/20 08:48:10;;;;;;;;;29.00;27.75;;;;;9.52;42.95;102162.44;4992108;28;45535;-77
2022/03/20 08:50:36;;;;;;;;;30.25;23.50;;;;;9.58;42.73;102184.63;4982884;28;46108;-78
2022/03/20 08:53:02;;;;;;;;;23.00;23.00;;;;;9.66;42.96;102197.94;4993591;28;45782;-77
2022/03/20 08:55:28;;;;;;;;;26.50;22.50;;;;;9.64;43.42;102187.25;5000477;28;45371;-80
2022/03/20 08:57:54;;;;;;;;;26.50;23.50;;;;;9.71;43.16;102190.78;4991844;28;45511;-78
2022/03/20 09:00:22;;;;;;;;;34.00;32.25;;;;;9.83;42.86;102204.03;4984227;28;46380;-81
2022/03/20 09:02:49;;;;;;;;;34.50;31.50;;;;;9.85;43.17;102203.16;4995349;28;45692;-81
2022/03/20 09:05:15;;;;;;;;;25.75;24.25;;;;;9.93;42.64;102201.31;4987956;28;45568;-78
2022/03/20 09:07:46;;;;;;;;;30.75;26.25;;;;;10.00;42.57;102208.38;4989832;28;45424;-73
2022/03/20 09:10:16;;;;;;;;;31.25;31.25;;;;;10.06;42.97;102210.16;4996746;28;46185;-83
2022/03/20 09:12:43;;;;;;;;;33.50;30.00;;;;;10.12;42.52;102212.75;4969736;28;45607;-81
2022/03/20 09:15:12;;;;;;;;;30.25;26.75;;;;;10.13;42.91;102214.53;4990130;28;45399;-84
2022/03/20 09:20:22;;;;;;;;;34.25;26.75;;;;;10.19;42.79;102209.16;4990314;28;45659;-66
2022/03/20 09:22:48;;;;;;;;;35.00;30.75;;;;;10.23;42.56;102207.34;4994579;28;45674;-69
2022/03/20 09:25:14;;;;;;;;;34.00;30.25;;;;;10.15;42.91;102207.41;4984580;28;45738;-67
2022/03/20 09:27:39;;;;;;;;;31.75;27.00;;;;;10.18;42.91;102212.72;4993884;28;45679;-67
2022/03/20 09:30:05;;;;;;;;;24.00;23.25;;;;;10.19;42.71;102211.84;4994414;28;46013;-67
2022/03/20 09:32:31;;;;;;;;;25.50;20.75;;;;;10.17;42.46;102208.25;4981701;28;45742;-67
2022/03/20 09:34:56;;;;;;;;;30.25;28.00;;;;;10.29;43.00;102210.88;4983866;28;45498;-67
2022/03/20 09:37:22;;;;;;;;;29.25;27.00;;;;;10.39;42.93;102211.72;5001171;28;45458;-67
2022/03/20 09:39:47;;;;;;;;;37.25;32.50;;;;;10.38;42.72;102213.47;4995858;28;45514;-67
2022/03/20 09:42:13;;;;;;;;;30.00;25.00;;;;;10.42;42.30;102200.09;4982292;28;45369;-67
2022/03/20 09:44:39;;;;;;;;;34.00;29.75;;;;;10.35;42.54;102181.47;4994691;28;45436;-67
2022/03/20 09:47:10;;;;;;;;;30.75;24.00;;;;;10.46;42.27;102189.41;4980528;28;45255;-67
2022/03/20 09:49:36;;;;;;;;;25.50;25.25;;;;;10.57;42.59;102195.53;4996818;28;46179;-67
2022/03/20 09:52:02;;;;;;;;;30.75;27.25;;;;;10.63;42.19;102193.72;5000850;28;45858;-67
2022/03/20 09:54:27;;;;;;;;;31.75;28.50;;;;;10.63;42.23;102199.91;4988213;28;45639;-67
2022/03/20 09:56:53;;;;;;;;;26.50;24.50;;;;;10.63;42.04;102186.56;5000373;28;45554;-68
2022/03/20 09:59:19;;;;;;;;;27.00;22.25;;;;;10.66;41.66;102197.22;4987913;28;46024;-67
2022/03/20 10:01:44;;;;;;;;;31.50;27.00;;;;;10.65;41.26;102186.56;5001242;28;45356;-67
2022/03/20 10:04:15;;;;;;;;;30.25;26.50;;;;;10.70;41.63;102198.06;4985406;28;45256;-67
2022/03/20 10:06:42;;;;;;;;;28.00;25.25;;;;;10.74;41.63;102195.38;4981999;28;45265;-67
2022/03/20 10:09:12;;;;;;;;;38.50;27.50;;;;;10.82;41.38;102205.97;4981368;28;45431;-67
2022/03/20 10:11:47;;;;;;;;;35.50;28.50;;;;;10.92;41.90;102198.75;4984955;28;45267;-68
2022/03/20 10:14:19;;;;;;;;;34.75;28.75;;;;;10.97;40.97;102204.03;5000785;28;45499;-69
2022/03/20 10:17:16;;;;;;;;;25.75;22.75;;;;;10.94;41.37;102204.94;4995177;28;45270;-69
2022/03/20 10:19:42;;;;;;;;;26.00;24.25;;;;;10.98;41.54;102203.16;4995246;28;46033;-69
2022/03/20 10:22:14;;;;;;;;;30.00;26.75;;;;;11.00;41.09;102201.34;4999673;28;45237;-69
2022/03/20 10:24:47;;;;;;;;;26.75;22.75;;;;;11.11;41.22;102203.00;4990579;28;45714;-69
2022/03/20 10:27:14;;;;;;;;;28.00;28.00;;;;;11.14;40.72;102191.38;4986121;28;45708;-69
2022/03/20 10:29:50;;;;;;;;;27.75;26.25;;;;;11.06;40.92;102177.19;4999263;28;45333;-69
2022/03/20 10:32:17;;;;;;;;;27.00;27.00;;;;;11.18;40.89;102201.13;4987311;28;45475;-69
2022/03/20 10:34:53;;;;;;;;;23.50;23.50;;;;;11.21;40.68;102194.84;4991057;28;45375;-69
2022/03/20 10:37:41;;;;;;;;;28.00;23.25;;;;;10.95;40.20;102147.94;4997149;28;45884;-69
2022/03/20 10:40:11;;;;;;;;;28.75;26.00;;;;;11.27;40.04;102194.78;4981266;28;46476;-69
2022/03/20 10:42:37;;;;;;;;;26.50;22.25;;;;;11.28;39.82;102200.13;4980907;28;45381;-69
2022/03/20 10:45:07;;;;;;;;;28.00;23.25;;;;;11.36;39.59;102199.13;4992551;28;45405;-69
2022/03/20 10:47:34;;;;;;;;;21.25;20.50;;;;;11.37;39.51;102196.44;4986150;28;45352;-69
2022/03/20 10:50:07;;;;;;;;;24.00;22.00;;;;;11.36;39.40;102193.78;4997348;28;45465;-69
2022/03/20 10:52:35;;;;;;;;;19.25;16.25;;;;;11.47;39.44;102195.41;4988222;28;45827;-69
2022/03/20 10:55:07;;;;;;;;;24.75;21.25;;;;;11.49;39.26;102188.28;4996451;28;45388;-69
2022/03/20 10:57:33;;;;;;;;;20.50;18.00;;;;;11.59;39.25;102198.84;4996732;28;45426;-68
2022/03/20 11:00:02;;;;;;;;;22.25;19.25;;;;;11.63;38.91;102197.91;4982017;28;46548;-68
2022/03/20 11:02:28;;;;;;;;;24.50;20.25;;;;;11.68;38.64;102193.38;4989665;28;45823;-68
2022/03/20 11:04:54;;;;;;;;;19.75;17.50;;;;;11.68;38.52;102182.69;4997145;28;45323;-68
2022/03/20 11:07:21;;;;;;;;;22.50;21.00;;;;;11.66;38.09;102181.78;4986789;28;45486;-69
2022/03/20 11:09:49;;;;;;;;;19.50;17.75;;;;;11.59;38.04;102172.09;4997407;28;46487;-70
2022/03/20 11:12:18;;;;;;;;;20.75;19.00;;;;;11.69;37.25;102184.44;4979230;28;45916;-67
2022/03/20 11:14:44;;;;;;;;;23.50;20.25;;;;;11.71;37.74;102179.97;4995512;28;45651;-68
2022/03/20 11:17:17;;;;;;;;;17.75;17.75;;;;;11.77;37.28;102181.66;4983436;28;45533;-72
2022/03/20 11:19:49;;;;;;;;;15.00;14.25;;;;;11.72;36.67;102173.69;4992136;28;45678;-72
2022/03/20 11:22:20;;;;;;;;;18.50;17.00;;;;;11.70;36.04;102174.63;4989372;28;45602;-72
2022/03/20 11:24:51;;;;;;;;;15.75;14.50;;;;;11.79;36.75;102183.38;4986955;28;45329;-70
2022/03/20 11:27:23;;;;;;;;;13.50;12.50;;;;;11.90;36.88;102193.06;4999236;28;45314;-69
2022/03/20 11:29:55;;;;;;;;;16.25;16.25;;;;;11.97;36.45;102190.31;4986991;28;47089;-69
2022/03/20 11:32:21;;;;;;;;;20.25;17.25;;;;;11.97;35.73;102189.44;4998127;28;45232;-69
2022/03/20 11:34:48;;;;;;;;;14.50;13.50;;;;;11.95;36.23;102183.22;4988254;28;45316;-70
2022/03/20 11:37:17;;;;;;;;;20.00;15.50;;;;;12.00;36.70;102181.34;4979591;28;45628;-69
2022/03/20 11:40:08;;;;;;;;;17.25;16.00;;;;;12.08;36.42;102179.44;4985910;28;45319;-70
2022/03/20 11:42:33;;;;;;;;;18.50;16.25;;;;;12.14;36.37;102182.00;4986502;28;45616;-68
2022/03/20 11:45:04;;;;;;;;;21.25;17.75;;;;;12.24;36.05;102180.06;4983424;28;45304;-70
2022/03/20 11:47:35;;;;;;;;;9.75;8.75;;;;;12.32;35.74;102185.31;4994425;28;45502;-67
2022/03/20 11:50:10;;;;;;;;;17.50;14.25;;;;;12.37;35.58;102178.06;4992680;28;46236;-66
2022/03/20 11:53:00;;;;;;;;;18.25;16.25;;;;;12.41;35.98;102182.47;4996183;28;45213;-70